Time;durP1;ratioP1;P1;durP2;ratioP2;P2;SDS_P1;SDS_P2;PMS_P1;PMS_P2;Temp;Humidity;BMP_temperature;BMP_pressure;BME280_temperature;BME280_humidity;BME280_pressure;Samples;Min_cycle;Max_cycle;Signal;HPM_P1;HPM_P2
2023/03/01 00:02:06;;;;;;;1.25;0.82;;;;;;;;;;5013304;28;20049;-66
2023/03/01 00:04:36;;;;;;;1.67;0.90;;;;;;;;;;5026929;28;20057;-67
2023/03/01 00:07:06;;;;;;;2.08;0.73;;;;;;;;;;5029196;28;20053;-65
2023/03/01 00:09:37;;;;;;;1.95;0.75;;;;;;;;;;4996534;28;20057;-66
2023/03/01 00:12:07;;;;;;;3.03;1.17;;;;;;;;;;5012810;28;20045;-65
2023/03/01 00:14:38;;;;;;;1.73;0.70;;;;;;;;;;5029377;28;21055;-65
2023/03/01 00:17:09;;;;;;;2.38;0.65;;;;;;;;;;5042097;28;20053;-66
2023/03/01 00:19:44;;;;;;;1.15;0.63;;;;;;;;;;5010723;28;20064;-66
2023/03/01 00:22:14;;;;;;;2.28;1.10;;;;;;;;;;5020841;28;20052;-64
2023/03/01 00:24:43;;;;;;;2.08;0.77;;;;;;;;;;5019762;28;20442;-65
2023/03/01 00:27:13;;;;;;;1.48;0.63;;;;;;;;;;5018009;28;20060;-65
2023/03/01 00:29:43;;;;;;;2.30;2.10;;;;;;;;;;5008670;28;20046;-65
2023/03/01 00:32:13;;;;;;;1.60;0.70;;;;;;;;;;5003647;28;20073;-64
2023/03/01 00:34:53;;;;;;;1.13;0.50;;;;;;;;;;4998107;28;20054;-67
2023/03/01 00:37:24;;;;;;;2.25;0.63;;;;;;;;;;4989204;28;20111;-67
2023/03/01 00:39:58;;;;;;;1.55;0.68;;;;;;;;;;4941118;28;20524;-64
2023/03/01 00:42:28;;;;;;;3.30;0.55;;;;;;;;;;4941591;28;20046;-65
2023/03/01 00:44:58;;;;;;;0.93;0.60;;;;;;;;;;4988668;28;20426;-64
2023/03/01 00:47:32;;;;;;;1.45;0.57;;;;;;;;;;4989292;28;20576;-64
2023/03/01 00:50:03;;;;;;;1.50;0.68;;;;;;;;;;4989329;28;20502;-63
2023/03/01 00:52:37;;;;;;;2.72;0.57;;;;;;;;;;4982547;28;20051;-63
2023/03/01 00:55:08;;;;;;;1.52;0.65;;;;;;;;;;4950323;29;20066;-64
2023/03/01 00:57:40;;;;;;;1.08;0.50;;;;;;;;;;4950767;29;20066;-64
2023/03/01 01:00:11;;;;;;;2.72;0.65;;;;;;;;;;4934345;29;20074;-65
2023/03/01 01:02:41;;;;;;;1.80;0.68;;;;;;;;;;4950714;29;20055;-65
2023/03/01 01:05:11;;;;;;;2.28;0.77;;;;;;;;;;4951004;29;20573;-65
2023/03/01 01:07:41;;;;;;;2.90;0.60;;;;;;;;;;4949803;29;20114;-64
2023/03/01 01:10:16;;;;;;;1.58;0.65;;;;;;;;;;4989162;28;20769;-65
2023/03/01 01:12:46;;;;;;;1.63;0.60;;;;;;;;;;4973442;28;20065;-65
2023/03/01 01:15:17;;;;;;;3.35;0.80;;;;;;;;;;4960597;28;20057;-65
2023/03/01 01:17:47;;;;;;;1.98;0.75;;;;;;;;;;4960626;28;20532;-66
2023/03/01 01:20:18;;;;;;;1.30;0.70;;;;;;;;;;5019807;28;20057;-68
2023/03/01 01:22:48;;;;;;;2.72;1.00;;;;;;;;;;5026966;28;20053;-66
2023/03/01 01:25:18;;;;;;;0.95;0.55;;;;;;;;;;5047732;28;20507;-65
2023/03/01 01:27:48;;;;;;;2.05;0.98;;;;;;;;;;4959050;28;20516;-65
2023/03/01 01:30:19;;;;;;;2.08;0.70;;;;;;;;;;4971803;28;20065;-65
2023/03/01 01:32:52;;;;;;;2.20;1.10;;;;;;;;;;4987831;28;20465;-65
2023/03/01 01:35:24;;;;;;;1.80;0.63;;;;;;;;;;4961710;28;20054;-65
2023/03/01 01:37:54;;;;;;;0.82;0.52;;;;;;;;;;4977610;28;20050;-67
2023/03/01 01:40:25;;;;;;;3.05;0.70;;;;;;;;;;4987839;28;20509;-65
2023/03/01 01:42:54;;;;;;;2.15;0.60;;;;;;;;;;4940084;28;20056;-65
2023/03/01 01:45:38;;;;;;;1.58;0.45;;;;;;;;;;4969628;28;20054;-65
2023/03/01 01:48:16;;;;;;;3.05;0.43;;;;;;;;;;4912929;28;20059;-66
2023/03/01 01:50:54;;;;;;;1.42;0.52;;;;;;;;;;4952522;28;20063;-65
2023/03/01 01:53:26;;;;;;;1.00;0.70;;;;;;;;;;4951722;28;20430;-65
2023/03/01 01:56:00;;;;;;;3.75;0.63;;;;;;;;;;4952476;28;20050;-65
2023/03/01 01:58:31;;;;;;;1.70;0.68;;;;;;;;;;4950839;29;20160;-65
2023/03/01 02:01:02;;;;;;;2.67;1.13;;;;;;;;;;4934073;29;20063;-65
2023/03/01 02:03:37;;;;;;;0.82;0.52;;;;;;;;;;4915420;29;20051;-65
2023/03/01 02:06:19;;;;;;;0.93;0.50;;;;;;;;;;4900926;29;20072;-65
2023/03/01 02:08:53;;;;;;;1.33;0.60;;;;;;;;;;4888133;29;20041;-65
2023/03/01 02:11:23;;;;;;;3.50;0.93;;;;;;;;;;4858918;29;20068;-65
2023/03/01 02:13:55;;;;;;;0.85;0.50;;;;;;;;;;4849744;29;20405;-66
2023/03/01 02:16:26;;;;;;;4.60;0.60;;;;;;;;;;4877642;29;20068;-65
2023/03/01 02:18:58;;;;;;;1.65;0.60;;;;;;;;;;4846892;29;20061;-65
2023/03/01 02:21:31;;;;;;;3.85;0.68;;;;;;;;;;4862919;29;20060;-65
2023/03/01 02:24:28;;;;;;;1.73;0.55;;;;;;;;;;4834450;29;20410;-65
2023/03/01 02:27:00;;;;;;;1.42;0.73;;;;;;;;;;4877561;29;20079;-65
2023/03/01 02:29:30;;;;;;;3.35;1.00;;;;;;;;;;4896102;29;20060;-65
2023/03/01 02:32:02;;;;;;;1.30;0.52;;;;;;;;;;4876891;29;20080;-64
2023/03/01 02:34:33;;;;;;;1.30;0.50;;;;;;;;;;4836593;29;20057;-65
2023/03/01 02:37:16;;;;;;;2.53;0.90;;;;;;;;;;4837566;29;20069;-67
2023/03/01 02:39:57;;;;;;;5.05;0.82;;;;;;;;;;4832913;29;20066;-65
2023/03/01 02:42:34;;;;;;;1.65;0.63;;;;;;;;;;4871133;29;20534;-65
2023/03/01 02:45:04;;;;;;;1.85;0.60;;;;;;;;;;4892393;29;20053;-65
2023/03/01 02:47:34;;;;;;;3.53;0.68;;;;;;;;;;4861455;29;20053;-65
2023/03/01 02:50:30;;;;;;;2.05;0.88;;;;;;;;;;4894747;29;20056;-65
2023/03/01 02:53:21;;;;;;;2.13;0.77;;;;;;;;;;4877233;29;20405;-64
2023/03/01 02:55:51;;;;;;;3.83;0.90;;;;;;;;;;4908642;29;20520;-65
2023/03/01 02:58:21;;;;;;;4.05;1.00;;;;;;;;;;4888240;29;20065;-65
2023/03/01 03:00:52;;;;;;;1.48;0.75;;;;;;;;;;4852888;29;20479;-64
2023/03/01 03:03:22;;;;;;;2.00;0.60;;;;;;;;;;4887257;29;20062;-65
2023/03/01 03:05:52;;;;;;;2.63;0.65;;;;;;;;;;4933811;29;20161;-65
2023/03/01 03:08:23;;;;;;;5.38;0.73;;;;;;;;;;4914334;29;20063;-64
2023/03/01 03:10:53;;;;;;;2.70;0.68;;;;;;;;;;4971958;28;20054;-64
2023/03/01 03:13:28;;;;;;;1.48;0.60;;;;;;;;;;4932929;29;20048;-64
2023/03/01 03:15:58;;;;;;;2.17;0.65;;;;;;;;;;4945200;28;20096;-64
2023/03/01 03:18:28;;;;;;;1.15;0.60;;;;;;;;;;4914160;29;20059;-65
2023/03/01 03:20:58;;;;;;;1.35;0.70;;;;;;;;;;4914328;29;20056;-63
2023/03/01 03:23:29;;;;;;;3.08;0.88;;;;;;;;;;4914210;29;20052;-65
2023/03/01 03:25:59;;;;;;;2.17;0.63;;;;;;;;;;4914478;29;20056;-64
2023/03/01 03:28:30;;;;;;;1.13;0.52;;;;;;;;;;4914297;29;20056;-64
2023/03/01 03:31:03;;;;;;;1.73;0.73;;;;;;;;;;4898113;29;20059;-64
2023/03/01 03:33:33;;;;;;;3.72;0.60;;;;;;;;;;4929669;29;20497;-63
2023/03/01 03:36:04;;;;;;;1.05;0.57;;;;;;;;;;4923806;29;20408;-65
2023/03/01 03:38:34;;;;;;;1.20;0.52;;;;;;;;;;4913528;29;20052;-65
2023/03/01 03:41:07;;;;;;;1.05;0.60;;;;;;;;;;4910763;29;20543;-64
2023/03/01 03:43:39;;;;;;;1.45;0.52;;;;;;;;;;4895062;29;20461;-63
2023/03/01 03:46:10;;;;;;;2.17;0.73;;;;;;;;;;4879592;29;20064;-63
2023/03/01 03:48:43;;;;;;;1.50;0.52;;;;;;;;;;4935653;29;20578;-64
2023/03/01 03:51:15;;;;;;;2.75;0.73;;;;;;;;;;4925419;28;20058;-64
2023/03/01 03:53:46;;;;;;;4.03;0.75;;;;;;;;;;4975463;28;20502;-64
2023/03/01 03:56:15;;;;;;;1.60;0.75;;;;;;;;;;5002985;28;20425;-64
2023/03/01 03:58:45;;;;;;;1.85;0.52;;;;;;;;;;5012822;28;20057;-64
2023/03/01 04:01:15;;;;;;;2.97;0.68;;;;;;;;;;5077227;28;20497;-64
2023/03/01 04:03:46;;;;;;;1.40;0.82;;;;;;;;;;5012758;28;20082;-64
2023/03/01 04:06:16;;;;;;;5.38;0.70;;;;;;;;;;5012665;28;20397;-65
2023/03/01 04:08:46;;;;;;;4.10;0.75;;;;;;;;;;5011308;28;20060;-64
2023/03/01 04:11:27;;;;;;;1.42;0.63;;;;;;;;;;5049709;28;20389;-64
2023/03/01 04:13:59;;;;;;;2.92;0.75;;;;;;;;;;5047452;28;20057;-63
2023/03/01 04:16:29;;;;;;;3.03;0.75;;;;;;;;;;5049607;28;20067;-64
2023/03/01 04:19:00;;;;;;;1.35;0.52;;;;;;;;;;5049456;28;20049;-64
2023/03/01 04:21:30;;;;;;;1.50;0.80;;;;;;;;;;5016694;28;20536;-64
2023/03/01 04:23:59;;;;;;;1.63;0.70;;;;;;;;;;5049468;28;20409;-64
2023/03/01 04:26:30;;;;;;;3.45;0.82;;;;;;;;;;5065713;28;20044;-64
2023/03/01 04:29:00;;;;;;;3.08;0.60;;;;;;;;;;5045262;28;20060;-63
2023/03/01 04:31:30;;;;;;;2.47;0.63;;;;;;;;;;4980032;28;20060;-64
2023/03/01 04:33:59;;;;;;;2.67;0.80;;;;;;;;;;5029365;28;20057;-64
2023/03/01 04:36:29;;;;;;;1.58;0.73;;;;;;;;;;5045824;28;20060;-64
2023/03/01 04:39:11;;;;;;;5.60;0.88;;;;;;;;;;5012199;28;20057;-65
2023/03/01 04:41:43;;;;;;;1.25;0.55;;;;;;;;;;5045585;28;20057;-64
2023/03/01 04:44:12;;;;;;;1.83;0.40;;;;;;;;;;5029371;28;20049;-64
2023/03/01 04:46:42;;;;;;;1.35;0.80;;;;;;;;;;5012726;28;20049;-64
2023/03/01 04:49:12;;;;;;;2.53;0.70;;;;;;;;;;5016738;28;20505;-64
2023/03/01 04:51:43;;;;;;;1.55;0.70;;;;;;;;;;5009614;28;20061;-64
2023/03/01 04:54:13;;;;;;;0.80;0.50;;;;;;;;;;5009269;28;20522;-64
2023/03/01 04:56:42;;;;;;;0.90;0.43;;;;;;;;;;5009650;28;20513;-63
2023/03/01 04:59:13;;;;;;;3.03;0.73;;;;;;;;;;4960911;28;20446;-64
2023/03/01 05:01:44;;;;;;;3.63;0.63;;;;;;;;;;5025139;28;20050;-64
2023/03/01 05:04:13;;;;;;;2.38;0.55;;;;;;;;;;4989310;28;20058;-64
2023/03/01 05:06:44;;;;;;;2.95;0.65;;;;;;;;;;5000337;28;20057;-64
2023/03/01 05:09:14;;;;;;;4.35;0.75;;;;;;;;;;4960220;28;20061;-63
2023/03/01 05:11:44;;;;;;;2.47;0.93;;;;;;;;;;4992612;28;20046;-64
2023/03/01 05:14:14;;;;;;;1.50;0.65;;;;;;;;;;4960575;28;20096;-63
2023/03/01 05:16:44;;;;;;;2.80;1.10;;;;;;;;;;5009172;28;20070;-63
2023/03/01 05:19:22;;;;;;;4.03;0.80;;;;;;;;;;5009017;28;20073;-64
2023/03/01 05:22:03;;;;;;;5.72;0.90;;;;;;;;;;5024809;28;20161;-64
2023/03/01 05:24:35;;;;;;;2.42;0.85;;;;;;;;;;5009016;28;20046;-63
2023/03/01 05:27:06;;;;;;;1.13;0.65;;;;;;;;;;5048671;28;20081;-64
2023/03/01 05:29:36;;;;;;;1.70;0.65;;;;;;;;;;5016257;28;20069;-64
2023/03/01 05:32:06;;;;;;;5.60;0.90;;;;;;;;;;4998681;28;20079;-63
2023/03/01 05:34:36;;;;;;;2.65;0.93;;;;;;;;;;5048704;28;20057;-64
2023/03/01 05:37:08;;;;;;;3.33;0.70;;;;;;;;;;4995724;28;20509;-65
2023/03/01 05:39:38;;;;;;;3.30;0.60;;;;;;;;;;5028526;28;20497;-64
2023/03/01 05:42:11;;;;;;;3.58;0.80;;;;;;;;;;5031897;28;20418;-63
2023/03/01 05:44:40;;;;;;;3.38;0.55;;;;;;;;;;5032047;28;20065;-63
2023/03/01 05:47:10;;;;;;;2.25;0.52;;;;;;;;;;5048641;28;20053;-64
2023/03/01 05:49:39;;;;;;;2.45;0.60;;;;;;;;;;5048328;28;20540;-64
2023/03/01 05:52:09;;;;;;;2.38;0.63;;;;;;;;;;5048571;28;20057;-63
2023/03/01 05:54:39;;;;;;;1.20;0.63;;;;;;;;;;5031923;28;20068;-63
2023/03/01 05:57:10;;;;;;;1.60;0.63;;;;;;;;;;5048326;28;20099;-64
2023/03/01 05:59:40;;;;;;;1.70;0.77;;;;;;;;;;5048394;28;20385;-63
2023/03/01 06:02:10;;;;;;;2.35;0.65;;;;;;;;;;5048556;28;20053;-63
2023/03/01 06:04:40;;;;;;;4.55;1.40;;;;;;;;;;5029721;28;20057;-63
2023/03/01 06:07:09;;;;;;;3.47;0.82;;;;;;;;;;5025013;28;20061;-64
2023/03/01 06:09:39;;;;;;;2.70;0.80;;;;;;;;;;5042459;28;20058;-64
2023/03/01 06:12:09;;;;;;;1.67;0.60;;;;;;;;;;5011220;28;20049;-63
2023/03/01 06:14:41;;;;;;;4.15;0.95;;;;;;;;;;5010958;28;20049;-66
2023/03/01 06:17:11;;;;;;;3.40;0.95;;;;;;;;;;5034861;28;20725;-63
2023/03/01 06:19:41;;;;;;;2.35;0.73;;;;;;;;;;5067827;28;20056;-63
2023/03/01 06:22:12;;;;;;;1.50;0.73;;;;;;;;;;5068033;28;20082;-65
2023/03/01 06:24:41;;;;;;;3.60;0.70;;;;;;;;;;5048034;28;20405;-62
2023/03/01 06:27:11;;;;;;;1.90;0.70;;;;;;;;;;5014721;28;20508;-62
2023/03/01 06:29:41;;;;;;;1.80;0.80;;;;;;;;;;5014841;28;20071;-63
2023/03/01 06:32:11;;;;;;;2.47;0.70;;;;;;;;;;5015270;28;20060;-62
2023/03/01 06:34:40;;;;;;;4.43;0.65;;;;;;;;;;5051461;28;20056;-63
2023/03/01 06:37:11;;;;;;;3.03;0.90;;;;;;;;;;5011564;28;20081;-62
2023/03/01 06:39:41;;;;;;;3.55;0.80;;;;;;;;;;4995722;28;20058;-63
2023/03/01 06:42:10;;;;;;;1.35;0.52;;;;;;;;;;5011680;28;20058;-63
2023/03/01 06:44:41;;;;;;;1.40;0.52;;;;;;;;;;5011592;28;20073;-63
2023/03/01 06:47:12;;;;;;;3.63;0.60;;;;;;;;;;5011542;28;20516;-66
2023/03/01 06:49:42;;;;;;;4.60;1.63;;;;;;;;;;5011670;28;20061;-63
2023/03/01 06:52:12;;;;;;;1.58;0.75;;;;;;;;;;5011587;28;20434;-64
2023/03/01 06:54:41;;;;;;;3.20;0.52;;;;;;;;;;4961204;28;20051;-63
2023/03/01 06:57:11;;;;;;;3.13;0.73;;;;;;;;;;4963810;28;20059;-63
2023/03/01 06:59:41;;;;;;;5.00;0.88;;;;;;;;;;4953169;28;20055;-62
2023/03/01 07:02:12;;;;;;;4.72;0.70;;;;;;;;;;4937669;28;20510;-63
2023/03/01 07:04:42;;;;;;;1.27;0.70;;;;;;;;;;5024008;28;20046;-62
2023/03/01 07:07:13;;;;;;;2.67;0.80;;;;;;;;;;4975266;28;20065;-63
2023/03/01 07:09:44;;;;;;;1.63;0.80;;;;;;;;;;4991681;28;20490;-63
2023/03/01 07:12:14;;;;;;;5.88;0.80;;;;;;;;;;4991728;28;20414;-65
2023/03/01 07:14:44;;;;;;;1.48;0.52;;;;;;;;;;5024103;28;20057;-63
2023/03/01 07:17:18;;;;;;;3.63;0.70;;;;;;;;;;4995711;28;20050;-62
2023/03/01 07:19:48;;;;;;;1.95;0.63;;;;;;;;;;5045277;28;20046;-63
2023/03/01 07:22:17;;;;;;;2.47;0.60;;;;;;;;;;5070402;28;20488;-62
2023/03/01 07:24:47;;;;;;;3.72;0.70;;;;;;;;;;5070717;28;20053;-62
2023/03/01 07:27:17;;;;;;;1.42;0.75;;;;;;;;;;5034231;28;20084;-63
2023/03/01 07:29:47;;;;;;;2.80;0.63;;;;;;;;;;5017292;28;20099;-63
2023/03/01 07:32:16;;;;;;;1.15;0.55;;;;;;;;;;5050481;28;20056;-63
2023/03/01 07:34:46;;;;;;;1.45;0.82;;;;;;;;;;5030430;28;20060;-63
2023/03/01 07:37:16;;;;;;;1.50;0.52;;;;;;;;;;5014212;28;20058;-64
2023/03/01 07:39:47;;;;;;;4.05;0.70;;;;;;;;;;5013781;28;20543;-63
2023/03/01 07:42:17;;;;;;;4.90;1.08;;;;;;;;;;4997498;28;20164;-63
2023/03/01 07:44:46;;;;;;;3.58;0.77;;;;;;;;;;5030827;28;20057;-63
2023/03/01 07:47:18;;;;;;;1.60;0.60;;;;;;;;;;5013980;28;20057;-63
2023/03/01 07:49:48;;;;;;;1.38;0.70;;;;;;;;;;5030248;28;20049;-62
2023/03/01 07:52:18;;;;;;;2.72;0.63;;;;;;;;;;5030244;28;20509;-63
2023/03/01 07:54:47;;;;;;;4.35;0.93;;;;;;;;;;5030126;28;20528;-63
2023/03/01 07:57:17;;;;;;;4.15;0.70;;;;;;;;;;5030275;28;20456;-63
2023/03/01 07:59:47;;;;;;;4.88;0.90;;;;;;;;;;4964033;28;20062;-63
2023/03/01 08:02:17;;;;;;;3.78;0.80;;;;;;;;;;4942696;28;20058;-64
2023/03/01 08:04:46;;;;;;;5.28;0.60;;;;;;;;;;4991067;28;20050;-64
2023/03/01 08:07:16;;;;;;;1.70;0.70;;;;;;;;;;5069202;28;20507;-64
2023/03/01 08:09:46;;;;;;;2.30;0.80;;;;;;;;;;4980937;28;20505;-63
2023/03/01 08:12:16;;;;;;;1.67;0.52;;;;;;;;;;5029896;28;20060;-64
2023/03/01 08:14:46;;;;;;;4.88;0.73;;;;;;;;;;5013416;28;20057;-64
2023/03/01 08:17:16;;;;;;;3.40;0.63;;;;;;;;;;4990232;28;20050;-64
2023/03/01 08:19:46;;;;;;;3.22;0.82;;;;;;;;;;4942270;28;20061;-64
2023/03/01 08:22:16;;;;;;;5.10;1.00;;;;;;;;;;4973955;28;20529;-64
2023/03/01 08:24:47;;;;;;;1.95;0.95;;;;;;;;;;4990370;28;20436;-65
2023/03/01 08:27:17;;;;;;;1.35;0.63;;;;;;;;;;4942081;28;20066;-64
2023/03/01 08:29:47;;;;;;;1.52;0.85;;;;;;;;;;4973942;28;20059;-64
2023/03/01 08:32:17;;;;;;;2.75;0.70;;;;;;;;;;4974183;28;20557;-64
2023/03/01 08:34:48;;;;;;;3.05;0.80;;;;;;;;;;4957763;28;20493;-64
2023/03/01 08:37:18;;;;;;;3.55;0.80;;;;;;;;;;4988765;28;20525;-65
2023/03/01 08:39:47;;;;;;;3.80;0.43;;;;;;;;;;4951357;29;20078;-64
2023/03/01 08:42:17;;;;;;;2.17;0.63;;;;;;;;;;4951526;28;20063;-64
2023/03/01 08:44:47;;;;;;;1.15;0.52;;;;;;;;;;4919588;29;20071;-64
2023/03/01 08:47:18;;;;;;;2.13;0.60;;;;;;;;;;4969148;28;20065;-64
2023/03/01 08:49:50;;;;;;;1.63;0.70;;;;;;;;;;4989772;28;20042;-64
2023/03/01 08:52:21;;;;;;;1.45;0.60;;;;;;;;;;5022011;28;20584;-65
2023/03/01 08:54:51;;;;;;;1.65;0.63;;;;;;;;;;4999619;28;20062;-64
2023/03/01 08:57:20;;;;;;;3.33;0.98;;;;;;;;;;5011702;28;20041;-64
2023/03/01 08:59:50;;;;;;;3.70;0.60;;;;;;;;;;5011870;28;20049;-65
2023/03/01 09:02:20;;;;;;;1.30;0.60;;;;;;;;;;5010282;28;20046;-63
2023/03/01 09:04:50;;;;;;;2.25;0.45;;;;;;;;;;5042269;28;20049;-64
2023/03/01 09:07:20;;;;;;;4.00;0.68;;;;;;;;;;5012368;28;20060;-64
2023/03/01 09:09:53;;;;;;;1.77;0.80;;;;;;;;;;5028794;28;20164;-63
2023/03/01 09:12:24;;;;;;;2.70;0.63;;;;;;;;;;4989589;28;20058;-63
2023/03/01 09:14:54;;;;;;;1.92;0.68;;;;;;;;;;4988998;28;20195;-65
2023/03/01 09:17:24;;;;;;;2.58;0.55;;;;;;;;;;4989395;28;21233;-63
2023/03/01 09:19:54;;;;;;;2.50;0.63;;;;;;;;;;4973796;28;20065;-64
2023/03/01 09:22:23;;;;;;;4.28;0.77;;;;;;;;;;4989342;28;20065;-64
2023/03/01 09:24:54;;;;;;;1.40;0.40;;;;;;;;;;4989288;28;20054;-64
2023/03/01 09:27:24;;;;;;;2.15;0.93;;;;;;;;;;4989574;28;20171;-64
2023/03/01 09:29:56;;;;;;;3.13;0.98;;;;;;;;;;4989547;28;20061;-64
2023/03/01 09:32:26;;;;;;;4.45;0.88;;;;;;;;;;4989053;28;20061;-64
2023/03/01 09:35:04;;;;;;;1.52;0.60;;;;;;;;;;4989468;28;20043;-64
2023/03/01 09:37:37;;;;;;;2.08;0.50;;;;;;;;;;4972963;28;20556;-64
2023/03/01 09:40:15;;;;;;;1.40;0.60;;;;;;;;;;4988812;28;20053;-64
2023/03/01 09:43:11;;;;;;;2.40;1.00;;;;;;;;;;4963666;28;20054;-64
2023/03/01 09:45:45;;;;;;;3.85;0.82;;;;;;;;;;4992148;28;20505;-64
2023/03/01 09:48:21;;;;;;;3.03;0.80;;;;;;;;;;5030834;28;20049;-64
2023/03/01 09:50:52;;;;;;;1.85;0.80;;;;;;;;;;5044910;28;20072;-65
2023/03/01 09:53:35;;;;;;;1.80;0.65;;;;;;;;;;4996119;28;20060;-64
2023/03/01 09:56:20;;;;;;;1.98;0.60;;;;;;;;;;5031095;28;20385;-65
2023/03/01 09:58:59;;;;;;;4.88;0.80;;;;;;;;;;5051548;28;20056;-66
2023/03/01 10:02:01;;;;;;;5.15;0.70;;;;;;;;;;5068046;28;20059;-63
2023/03/01 10:04:40;;;;;;;2.03;0.63;;;;;;;;;;5067587;28;20036;-66
2023/03/01 10:07:11;;;;;;;2.50;0.80;;;;;;;;;;5068125;28;20052;-63
2023/03/01 10:09:44;;;;;;;3.72;1.20;;;;;;;;;;5071830;28;21107;-63
2023/03/01 10:12:28;;;;;;;3.20;1.05;;;;;;;;;;5021802;28;20056;-63
2023/03/01 10:15:36;;;;;;;4.95;1.65;;;;;;;;;;5071841;28;20488;-63
2023/03/01 10:18:14;;;;;;;2.67;1.02;;;;;;;;;;5054941;28;20041;-64
2023/03/01 10:21:02;;;;;;;12.93;1.50;;;;;;;;;;5072029;28;20507;-63
2023/03/01 10:23:38;;;;;;;2.17;0.80;;;;;;;;;;5071742;28;20506;-63
2023/03/01 10:26:48;;;;;;;2.90;0.73;;;;;;;;;;5071813;28;20052;-64
2023/03/01 10:29:21;;;;;;;3.17;0.90;;;;;;;;;;5063744;28;20057;-64
2023/03/01 10:31:53;;;;;;;2.40;0.80;;;;;;;;;;5015640;28;20062;-64
2023/03/01 10:34:33;;;;;;;2.28;0.95;;;;;;;;;;5033670;28;20042;-64
2023/03/01 10:37:21;;;;;;;6.80;1.40;;;;;;;;;;5032754;28;20049;-64
2023/03/01 10:40:01;;;;;;;19.77;8.40;;;;;;;;;;5034209;28;20520;-64
2023/03/01 10:42:35;;;;;;;7.88;2.15;;;;;;;;;;4984585;28;20053;-64
2023/03/01 10:45:30;;;;;;;7.35;1.83;;;;;;;;;;5053659;28;20052;-64
2023/03/01 10:48:25;;;;;;;6.15;2.33;;;;;;;;;;5021315;28;20065;-65
2023/03/01 10:50:58;;;;;;;3.67;1.75;;;;;;;;;;5031264;28;20100;-64
2023/03/01 10:53:33;;;;;;;5.70;1.50;;;;;;;;;;4975546;28;20049;-66
2023/03/01 10:56:10;;;;;;;4.60;1.48;;;;;;;;;;4958330;28;20782;-64
2023/03/01 10:59:01;;;;;;;5.88;2.17;;;;;;;;;;4991793;28;20061;-65
2023/03/01 11:01:34;;;;;;;7.13;2.40;;;;;;;;;;4958494;28;20046;-65
2023/03/01 11:04:07;;;;;;;3.25;1.30;;;;;;;;;;4991692;28;20046;-65
2023/03/01 11:06:39;;;;;;;3.08;0.95;;;;;;;;;;4999291;28;20045;-65
2023/03/01 11:09:24;;;;;;;2.42;1.05;;;;;;;;;;4962518;28;20426;-65
2023/03/01 11:11:59;;;;;;;1.42;1.08;;;;;;;;;;4955658;28;20055;-65
2023/03/01 11:14:45;;;;;;;3.58;1.13;;;;;;;;;;4966762;28;20051;-65
2023/03/01 11:17:31;;;;;;;2.60;1.00;;;;;;;;;;4922848;28;20466;-67
2023/03/01 11:20:15;;;;;;;1.77;1.08;;;;;;;;;;4971574;28;20164;-65
2023/03/01 11:22:57;;;;;;;1.77;0.57;;;;;;;;;;4929898;29;20047;-66
2023/03/01 11:25:39;;;;;;;1.25;0.60;;;;;;;;;;4970100;28;20050;-65
2023/03/01 11:28:16;;;;;;;4.22;0.73;;;;;;;;;;4923211;28;20126;-65
2023/03/01 11:30:49;;;;;;;;;;;;;;;;;;4978269;28;20046;-65
2023/03/01 11:33:59;;;;;;;3.17;0.60;;;;;;;;;;5004630;28;19921;-65
2023/03/01 11:36:49;;;;;;;1.35;0.40;;;;;;;;;;4991008;28;20411;-65
2023/03/01 11:39:37;;;;;;;1.05;0.43;;;;;;;;;;4991134;28;20077;-65
2023/03/01 11:42:24;;;;;;;1.25;0.40;;;;;;;;;;4991331;28;20058;-65
2023/03/01 11:44:58;;;;;;;1.30;0.45;;;;;;;;;;4990803;28;20058;-66
2023/03/01 11:47:46;;;;;;;1.40;0.50;;;;;;;;;;4991005;28;20055;-66
2023/03/01 11:50:43;;;;;;;1.02;0.60;;;;;;;;;;4991039;28;20046;-65
2023/03/01 11:53:34;;;;;;;3.35;0.43;;;;;;;;;;5045837;28;20065;-64
2023/03/01 11:56:32;;;;;;;0.57;0.43;;;;;;;;;;5049980;28;20056;-65
2023/03/01 11:59:47;;;;;;;2.47;0.50;;;;;;;;;;5049723;28;20060;-66
2023/03/01 12:02:40;;;;;;;0.80;0.43;;;;;;;;;;5049593;28;20509;-66
2023/03/01 12:05:37;;;;;;;1.05;0.68;;;;;;;;;;4994404;28;20060;-65
2023/03/01 12:08:13;;;;;;;1.48;0.35;;;;;;;;;;5041345;28;20049;-64
2023/03/01 12:10:57;;;;;;;1.10;0.60;;;;;;;;;;5030538;28;20042;-65
2023/03/01 12:13:45;;;;;;;3.33;0.43;;;;;;;;;;5055971;28;20072;-66
2023/03/01 12:16:24;;;;;;;2.13;0.43;;;;;;;;;;5009963;28;20054;-66
2023/03/01 12:19:50;;;;;;;2.72;0.50;;;;;;;;;;5021411;28;20042;-65
2023/03/01 12:22:30;;;;;;;0.82;0.52;;;;;;;;;;4980462;28;20053;-65
2023/03/01 12:25:21;;;;;;;1.13;0.30;;;;;;;;;;5012881;28;20060;-65
2023/03/01 12:28:08;;;;;;;;;;;;;;;;;;4997192;28;20046;-65
2023/03/01 12:31:05;;;;;;;0.63;0.63;;;;;;;;;;5028506;28;19920;-66
2023/03/01 12:33:58;;;;;;;1.00;0.50;;;;;;;;;;5029520;28;20057;-66
2023/03/01 12:36:54;;;;;;;1.70;0.43;;;;;;;;;;5029204;28;20049;-65
2023/03/01 12:39:53;;;;;;;1.50;0.52;;;;;;;;;;5012643;28;20057;-65
2023/03/01 12:42:59;;;;;;;0.90;0.32;;;;;;;;;;4980254;28;20049;-66
2023/03/01 12:45:41;;;;;;;0.95;0.75;;;;;;;;;;5029187;28;20064;-66
2023/03/01 12:48:13;;;;;;;0.75;0.40;;;;;;;;;;5012505;28;20060;-67
2023/03/01 12:50:53;;;;;;;1.40;0.75;;;;;;;;;;5029348;28;20426;-66
2023/03/01 12:53:27;;;;;;;1.13;0.35;;;;;;;;;;4989759;28;20046;-67
2023/03/01 12:56:06;;;;;;;4.28;0.52;;;;;;;;;;4941571;28;20057;-66
2023/03/01 12:58:53;;;;;;;1.02;0.60;;;;;;;;;;5012610;28;20050;-66
2023/03/01 13:01:35;;;;;;;0.70;0.30;;;;;;;;;;4976921;28;20069;-67
2023/03/01 13:04:38;;;;;;;0.60;0.22;;;;;;;;;;4976318;28;20077;-67
2023/03/01 13:07:14;;;;;;;;;;;;;;;;;;4960908;28;20062;-67
2023/03/01 13:10:02;;;;;;;2.25;0.35;;;;;;;;;;5009179;28;19921;-66
2023/03/01 13:13:02;;;;;;;1.15;0.50;;;;;;;;;;5009242;28;20061;-66
2023/03/01 13:15:33;;;;;;;1.00;0.30;;;;;;;;;;5025451;28;20444;-67
2023/03/01 13:18:04;;;;;;;2.17;0.30;;;;;;;;;;5008753;28;20049;-68
2023/03/01 13:20:47;;;;;;;1.90;0.25;;;;;;;;;;5009204;28;20077;-66
2023/03/01 13:23:22;;;;;;;0.60;0.32;;;;;;;;;;5041333;28;20506;-67
2023/03/01 13:26:15;;;;;;;0.95;0.35;;;;;;;;;;5024513;28;20528;-67
2023/03/01 13:28:45;;;;;;;3.17;0.40;;;;;;;;;;5025064;28;20668;-66
2023/03/01 13:31:15;;;;;;;1.33;0.60;;;;;;;;;;5020337;28;20068;-67
2023/03/01 13:33:50;;;;;;;1.15;0.30;;;;;;;;;;5028749;28;20061;-66
2023/03/01 13:36:29;;;;;;;0.35;0.20;;;;;;;;;;4979739;28;20058;-67
2023/03/01 13:39:32;;;;;;;0.55;0.35;;;;;;;;;;5028730;28;20401;-65
2023/03/01 13:42:02;;;;;;;3.78;2.03;;;;;;;;;;5030732;28;20125;-65
2023/03/01 13:44:38;;;;;;;1.15;0.35;;;;;;;;;;4999667;28;20068;-65
2023/03/01 13:47:13;;;;;;;2.38;0.50;;;;;;;;;;5032473;28;20057;-66
2023/03/01 13:49:51;;;;;;;2.28;0.47;;;;;;;;;;5032502;28;20058;-67
2023/03/01 13:52:45;;;;;;;0.43;0.32;;;;;;;;;;5032576;28;20065;-64
2023/03/01 13:55:21;;;;;;;0.55;0.25;;;;;;;;;;4983538;28;20093;-66
2023/03/01 13:57:57;;;;;;;2.85;0.40;;;;;;;;;;5032235;28;20445;-66
2023/03/01 14:00:40;;;;;;;1.17;0.32;;;;;;;;;;5032381;28;20049;-65
2023/03/01 14:03:19;;;;;;;2.15;0.50;;;;;;;;;;5032266;28;20057;-66
2023/03/01 14:06:20;;;;;;;0.52;0.32;;;;;;;;;;5032184;28;20053;-66
2023/03/01 14:08:52;;;;;;;0.77;0.20;;;;;;;;;;5031700;28;20432;-66
2023/03/01 14:11:22;;;;;;;0.82;0.45;;;;;;;;;;5032076;28;20386;-68
2023/03/01 14:14:09;;;;;;;1.95;0.45;;;;;;;;;;5032378;28;20053;-67
2023/03/01 14:16:47;;;;;;;0.77;0.20;;;;;;;;;;4982884;28;20056;-67
2023/03/01 14:19:27;;;;;;;2.03;0.60;;;;;;;;;;5033348;28;20072;-67
2023/03/01 14:22:22;;;;;;;3.00;0.82;;;;;;;;;;5064765;28;20053;-66
2023/03/01 14:25:17;;;;;;;2.55;0.50;;;;;;;;;;5015633;28;20061;-66
2023/03/01 14:27:55;;;;;;;1.92;0.52;;;;;;;;;;5034560;28;20496;-65
2023/03/01 14:30:33;;;;;;;1.35;0.30;;;;;;;;;;5034263;28;20393;-66
2023/03/01 14:33:18;;;;;;;2.67;0.47;;;;;;;;;;5033215;28;20045;-67
2023/03/01 14:36:06;;;;;;;1.98;0.32;;;;;;;;;;5065120;28;20405;-67
2023/03/01 14:38:42;;;;;;;0.30;0.30;;;;;;;;;;5051185;28;20436;-66
2023/03/01 14:41:17;;;;;;;1.60;0.32;;;;;;;;;;5051492;28;20061;-67
2023/03/01 14:43:52;;;;;;;1.77;0.40;;;;;;;;;;5067308;28;20427;-68
2023/03/01 14:46:33;;;;;;;2.78;0.43;;;;;;;;;;5051158;28;20060;-66
2023/03/01 14:49:13;;;;;;;1.88;0.50;;;;;;;;;;5067244;28;20053;-68
2023/03/01 14:52:02;;;;;;;0.55;0.35;;;;;;;;;;5051289;28;20647;-67
2023/03/01 14:54:44;;;;;;;0.63;0.22;;;;;;;;;;5001116;28;20475;-67
2023/03/01 14:57:26;;;;;;;0.32;0.30;;;;;;;;;;5063424;28;20518;-67
2023/03/01 15:00:04;;;;;;;2.28;0.43;;;;;;;;;;5014286;28;20560;-67
2023/03/01 15:02:35;;;;;;;1.08;0.32;;;;;;;;;;4998270;28;20054;-67
2023/03/01 15:05:07;;;;;;;0.35;0.30;;;;;;;;;;4982214;28;20068;-69
2023/03/01 15:07:41;;;;;;;0.38;0.30;;;;;;;;;;5030901;28;20068;-65
2023/03/01 15:10:35;;;;;;;0.98;0.57;;;;;;;;;;5070662;28;20060;-68
2023/03/01 15:13:35;;;;;;;3.30;0.93;;;;;;;;;;4971878;28;20069;-67
2023/03/01 15:16:11;;;;;;;3.92;0.80;;;;;;;;;;4893175;29;20052;-67
2023/03/01 15:18:51;;;;;;;1.88;0.60;;;;;;;;;;4914152;29;20060;-67
2023/03/01 15:21:24;;;;;;;0.85;0.47;;;;;;;;;;4914493;29;20505;-68
2023/03/01 15:24:02;;;;;;;71.55;57.80;;;;;;;;;;4914076;29;20071;-67
2023/03/01 15:26:44;;;;;;;313.23;248.30;;;;;;;;;;4914411;29;20060;-67
2023/03/01 15:29:29;;;;;;;98.00;64.40;;;;;;;;;;4895060;29;20057;-66
2023/03/01 15:32:05;;;;;;;114.40;67.70;;;;;;;;;;4894936;29;20067;-66
2023/03/01 15:34:37;;;;;;;5.18;2.28;;;;;;;;;;4895028;29;20052;-67